Time;durP1;ratioP1;P1;durP2;ratioP2;P2;SDS_P1;SDS_P2;PMS_P1;PMS_P2;Temp;Humidity;BMP_temperature;BMP_pressure;BME280_temperature;BME280_humidity;BME280_pressure;Samples;Min_cycle;Max_cycle;Signal;HPM_P1;HPM_P2
2022/10/04 00:00:46;;;;;;;11.80;3.07;;;;;;;11.32;91.92;101289.88;5015681;28;20287;-78
2022/10/04 00:03:22;;;;;;;4.23;1.13;;;;;;;11.27;92.45;101283.81;5023926;28;20677;-79
2022/10/04 00:05:51;;;;;;;4.17;1.57;;;;;;;11.21;92.56;101279.47;5016724;28;20238;-76
2022/10/04 00:08:26;;;;;;;4.80;1.10;;;;;;;11.25;92.92;101280.34;5014397;28;20222;-76
2022/10/04 00:11:03;;;;;;;7.23;1.80;;;;;;;11.05;93.75;101268.28;5014513;28;20226;-76
2022/10/04 00:13:31;;;;;;;2.80;1.80;;;;;;;10.99;94.36;101243.97;5022210;28;20217;-79
2022/10/04 00:15:58;;;;;;;3.37;1.30;;;;;;;11.08;94.49;101225.59;5022520;28;20226;-79
2022/10/04 00:18:30;;;;;;;3.20;1.63;;;;;;;10.98;94.14;101223.94;5022398;28;20213;-79
2022/10/04 00:21:05;;;;;;;3.83;1.60;;;;;;;10.98;94.57;101219.59;5022536;28;20226;-78
2022/10/04 00:23:45;;;;;;;4.50;1.17;;;;;;;11.11;94.33;101212.50;5023968;28;20207;-78
2022/10/04 00:27:09;;;;;;;4.70;1.30;;;;;;;11.21;94.31;101216.75;5022852;28;20228;-78
2022/10/04 00:29:39;;;;;;;3.63;1.23;;;;;;;11.24;94.02;101221.13;5011213;28;20206;-78
2022/10/04 00:32:29;;;;;;;4.37;1.20;;;;;;;11.22;94.38;101220.22;5023757;28;20226;-79
2022/10/04 00:34:58;;;;;;;5.47;1.33;;;;;;;11.27;94.01;101227.16;5023737;28;20224;-79
2022/10/04 00:37:27;;;;;;;4.33;1.27;;;;;;;11.34;93.80;101235.81;5023218;28;20210;-79
2022/10/04 00:40:01;;;;;;;7.80;1.03;;;;;;;11.36;93.52;101241.03;5023327;28;20634;-79
2022/10/04 00:42:49;;;;;;;3.30;1.30;;;;;;;11.37;93.10;101251.47;5023080;28;20580;-79
2022/10/04 00:45:24;;;;;;;10.17;1.40;;;;;;;11.35;93.36;101257.59;5020363;28;20604;-79
2022/10/04 00:48:14;;;;;;;6.13;1.53;;;;;;;11.37;93.30;101251.47;5024583;28;20210;-78
2022/10/04 00:50:44;;;;;;;6.33;1.30;;;;;;;11.32;92.68;101263.72;5024180;28;20752;-78
2022/10/04 00:53:17;;;;;;;3.93;1.57;;;;;;;11.37;93.31;101253.22;5023217;28;20203;-79
2022/10/04 00:55:50;;;;;;;5.43;1.33;;;;;;;11.37;93.34;101235.78;5023319;28;20227;-79
2022/10/04 00:58:22;;;;;;;5.90;1.30;;;;;;;11.38;93.60;101231.41;5023727;28;20207;-79
2022/10/04 01:00:53;;;;;;;4.50;1.50;;;;;;;11.38;93.74;101223.56;5007770;28;20596;-78
2022/10/04 01:03:26;;;;;;;6.70;1.47;;;;;;;11.39;94.18;101210.50;5023936;28;20213;-79
2022/10/04 01:05:58;;;;;;;5.70;1.17;;;;;;;11.39;94.28;101205.25;5023350;28;20240;-79
2022/10/04 01:08:31;;;;;;;2.27;1.43;;;;;;;11.38;94.41;101203.56;5023519;28;20238;-78
2022/10/04 01:11:01;;;;;;;10.33;1.63;;;;;;;11.41;94.56;101206.13;5023382;28;20230;-79
2022/10/04 01:13:31;;;;;;;4.70;1.13;;;;;;;11.41;94.38;101208.72;5023967;28;20246;-79
2022/10/04 01:16:06;;;;;;;3.63;1.03;;;;;;;11.43;94.27;101206.09;5023183;28;20778;-79
2022/10/04 01:18:34;;;;;;;8.13;1.40;;;;;;;11.37;94.24;101198.34;5023707;28;20207;-78
2022/10/04 01:21:05;;;;;;;3.73;1.00;;;;;;;11.42;94.61;101192.19;5023700;28;20207;-78
2022/10/04 01:23:51;;;;;;;6.17;1.30;;;;;;;11.48;94.31;101197.34;5022698;28;20217;-79
2022/10/04 01:26:40;;;;;;;11.17;1.20;;;;;;;11.47;94.36;101205.19;5022993;28;20232;-79
2022/10/04 01:29:10;;;;;;;2.13;1.20;;;;;;;11.53;94.13;101194.66;5016571;28;20213;-79
2022/10/04 01:31:39;;;;;;;2.83;1.10;;;;;;;11.54;93.66;101204.25;5021026;28;20223;-78
2022/10/04 01:34:07;;;;;;;6.10;1.60;;;;;;;11.48;94.45;101199.97;5023922;28;20215;-79
2022/10/04 01:36:35;;;;;;;7.87;1.30;;;;;;;11.50;94.07;101179.03;5023288;28;20232;-79
2022/10/04 01:39:04;;;;;;;6.13;1.57;;;;;;;11.52;94.27;101180.72;5022847;28;20251;-78
2022/10/04 01:41:45;;;;;;;5.63;1.63;;;;;;;11.45;93.78;101191.28;5022728;28;20207;-79
2022/10/04 01:44:19;;;;;;;4.93;1.20;;;;;;;11.48;94.20;101179.03;5024240;28;20207;-79
2022/10/04 01:46:46;;;;;;;3.90;1.57;;;;;;;11.55;94.05;101178.97;5023536;28;20230;-79
2022/10/04 01:49:18;;;;;;;4.53;1.50;;;;;;;11.48;93.59;101192.13;5023500;28;20215;-79
2022/10/04 01:51:53;;;;;;;3.13;1.30;;;;;;;11.56;94.02;101188.56;5023180;28;20707;-79
2022/10/04 01:54:30;;;;;;;2.27;1.10;;;;;;;11.42;93.14;101220.06;5022598;28;20295;-78
2022/10/04 01:57:04;;;;;;;6.57;1.30;;;;;;;11.45;92.83;101215.66;5022708;28;20205;-79
2022/10/04 01:59:37;;;;;;;4.60;1.70;;;;;;;11.57;93.38;101206.81;5014914;28;20207;-79
2022/10/04 02:02:08;;;;;;;4.23;1.20;;;;;;;11.53;94.11;101177.25;5022294;28;20662;-79
2022/10/04 02:04:39;;;;;;;6.10;1.27;;;;;;;11.53;94.86;101169.41;5023068;28;20216;-78
2022/10/04 02:07:12;;;;;;;2.90;1.20;;;;;;;11.48;94.48;101173.81;5023157;28;20620;-79
2022/10/04 02:09:44;;;;;;;5.80;1.20;;;;;;;11.49;94.94;101172.91;5018592;28;20302;-78
2022/10/04 02:12:16;;;;;;;8.13;1.63;;;;;;;11.51;94.96;101165.91;5022740;28;20637;-79
2022/10/04 02:14:47;;;;;;;8.17;1.40;;;;;;;11.56;95.06;101165.88;5022871;28;20216;-79
2022/10/04 02:17:14;;;;;;;3.07;1.30;;;;;;;11.61;94.69;101165.81;5023374;28;20244;-79
2022/10/04 02:19:43;;;;;;;2.73;1.53;;;;;;;11.51;94.18;101179.00;5022963;28;20212;-79
2022/10/04 02:22:11;;;;;;;6.60;1.83;;;;;;;11.49;94.40;101156.38;5023323;28;20223;-79
2022/10/04 02:24:44;;;;;;;5.63;1.57;;;;;;;11.53;94.25;101163.28;5023792;28;20214;-79
2022/10/04 02:27:11;;;;;;;1.50;1.13;;;;;;;11.59;94.14;101159.75;5022189;28;20217;-79
2022/10/04 02:29:37;;;;;;;3.30;1.27;;;;;;;11.51;94.56;101152.84;5015563;28;20205;-79
2022/10/04 02:35:03;;;;;;;4.13;1.20;;;;;;;11.58;94.60;101152.81;4962252;29;20638;-79
2022/10/04 02:37:30;;;;;;;3.57;1.20;;;;;;;11.59;94.68;101155.38;5007869;28;20203;-80
2022/10/04 02:40:06;;;;;;;5.23;1.20;;;;;;;11.58;93.84;101163.25;5022430;28;20212;-79
2022/10/04 02:42:39;;;;;;;5.47;1.53;;;;;;;11.64;93.97;101169.28;5021294;28;20211;-79
2022/10/04 02:45:13;;;;;;;3.60;1.30;;;;;;;11.64;93.75;101171.03;5025827;28;20265;-79
2022/10/04 02:47:45;;;;;;;5.07;1.07;;;;;;;11.63;94.66;101161.44;5025727;28;20211;-78
2022/10/04 02:50:26;;;;;;;3.13;1.20;;;;;;;11.63;94.43;101156.22;5024374;28;20694;-78
2022/10/04 02:52:57;;;;;;;4.03;1.47;;;;;;;11.57;94.49;101145.81;5014381;28;20232;-78
2022/10/04 02:55:28;;;;;;;6.33;1.73;;;;;;;11.58;94.46;101151.03;5004792;28;20719;-79
2022/10/04 02:57:55;;;;;;;4.47;1.20;;;;;;;11.60;94.37;101144.03;5005414;28;20279;-78
2022/10/04 03:00:25;;;;;;;4.17;1.53;;;;;;;11.56;94.41;101137.13;5006128;28;20210;-79
2022/10/04 03:03:14;;;;;;;2.10;0.83;;;;;;;11.55;94.90;101121.44;5006030;28;20208;-78
2022/10/04 03:05:42;;;;;;;4.70;1.40;;;;;;;11.60;95.16;101120.50;5005486;28;20259;-79
2022/10/04 03:08:10;;;;;;;9.13;1.40;;;;;;;11.64;94.86;101118.72;5005808;28;20209;-78
2022/10/04 03:10:41;;;;;;;3.97;0.93;;;;;;;11.60;94.74;101123.13;5005961;28;20205;-78
2022/10/04 03:13:08;;;;;;;5.00;1.10;;;;;;;11.62;94.57;101123.13;5005976;28;20752;-78
2022/10/04 03:15:35;;;;;;;4.23;1.20;;;;;;;11.61;94.55;101130.06;5005700;28;20234;-78
2022/10/04 03:18:01;;;;;;;4.73;1.53;;;;;;;11.56;93.74;101144.13;5005956;28;20221;-79
2022/10/04 03:20:28;;;;;;;6.60;1.37;;;;;;;11.62;94.24;101138.81;5006585;28;20216;-78
2022/10/04 03:22:56;;;;;;;2.07;1.20;;;;;;;11.64;94.07;101144.88;5015079;28;20198;-78
2022/10/04 03:25:27;;;;;;;12.50;2.87;;;;;;;11.67;93.95;101148.34;5023671;28;20234;-78
2022/10/04 03:28:00;;;;;;;3.20;1.27;;;;;;;11.66;93.61;101148.34;5025102;28;20211;-79
2022/10/04 03:30:27;;;;;;;6.50;1.20;;;;;;;11.64;93.91;101143.13;5025035;28;20588;-78
2022/10/04 03:32:55;;;;;;;3.57;0.93;;;;;;;11.64;93.51;101143.13;5024489;28;20231;-78
2022/10/04 03:35:29;;;;;;;3.40;1.37;;;;;;;11.68;93.90;101133.50;5023735;28;20258;-78
2022/10/04 03:37:58;;;;;;;2.97;1.10;;;;;;;11.65;93.84;101142.22;5023894;28;20206;-79
2022/10/04 03:40:29;;;;;;;4.93;1.30;;;;;;;11.68;93.92;101142.19;5024066;28;20219;-78
2022/10/04 03:42:58;;;;;;;6.13;1.93;;;;;;;11.67;94.17;101144.81;5018218;28;20213;-78
2022/10/04 03:45:27;;;;;;;7.73;1.23;;;;;;;11.69;93.90;101137.81;5024522;28;20295;-78
2022/10/04 03:47:58;;;;;;;6.23;0.90;;;;;;;11.64;94.15;101137.91;5024342;28;20211;-78
2022/10/04 03:50:29;;;;;;;6.07;2.47;;;;;;;11.66;94.04;101141.34;5024828;28;20211;-78
2022/10/04 03:52:58;;;;;;;2.80;1.10;;;;;;;11.64;93.97;101147.50;5015970;28;20226;-78
2022/10/04 03:55:32;;;;;;;7.13;1.23;;;;;;;11.63;94.23;101137.91;5024149;28;20224;-78
2022/10/04 03:58:01;;;;;;;5.63;1.10;;;;;;;11.66;93.92;101135.28;5023963;28;20207;-79
2022/10/04 04:00:28;;;;;;;4.67;1.47;;;;;;;11.64;93.69;101150.97;5023273;28;20203;-78
2022/10/04 04:02:58;;;;;;;3.90;1.20;;;;;;;11.64;93.39;101153.59;5023358;28;20239;-78
2022/10/04 04:05:30;;;;;;;7.50;1.30;;;;;;;11.66;93.24;101149.19;5022541;28;20281;-79
2022/10/04 04:08:04;;;;;;;5.27;1.23;;;;;;;11.62;94.01;101131.81;5017699;28;20213;-78
2022/10/04 04:10:33;;;;;;;6.67;1.47;;;;;;;11.62;94.09;101120.50;5020337;28;20210;-79
2022/10/04 04:13:11;;;;;;;3.17;1.07;;;;;;;11.60;94.31;101111.81;5022657;28;20223;-79
2022/10/04 04:15:42;;;;;;;3.67;1.30;;;;;;;11.56;94.80;101103.13;5022531;28;20234;-78
2022/10/04 04:18:14;;;;;;;5.87;1.50;;;;;;;11.62;94.43;101107.44;5023133;28;20298;-78
2022/10/04 04:20:43;;;;;;;5.37;1.00;;;;;;;11.59;93.98;101116.16;5022259;28;20221;-79
2022/10/04 04:23:22;;;;;;;6.00;1.33;;;;;;;11.60;94.17;101112.66;5022594;28;20211;-78
2022/10/04 04:26:25;;;;;;;3.93;1.20;;;;;;;11.63;93.74;101116.97;5024771;28;20227;-79
2022/10/04 04:28:56;;;;;;;8.23;2.03;;;;;;;11.62;93.89;101120.50;5019824;28;20210;-78
2022/10/04 04:31:25;;;;;;;3.70;1.20;;;;;;;11.60;93.82;101115.28;5022894;28;20227;-79
2022/10/04 04:33:59;;;;;;;5.20;1.13;;;;;;;11.63;93.54;101122.22;5022781;28;20212;-79
2022/10/04 04:36:27;;;;;;;3.07;1.10;;;;;;;11.64;93.84;101121.34;5021429;28;20249;-78
2022/10/04 04:41:39;;;;;;;2.23;1.07;;;;;;;11.62;93.05;101134.44;5015118;28;20253;-78
2022/10/04 04:44:17;;;;;;;5.17;1.20;;;;;;;11.65;92.98;101137.00;5022966;28;20234;-78
2022/10/04 04:46:44;;;;;;;3.47;1.43;;;;;;;11.66;92.98;101143.13;5021985;28;20246;-78
2022/10/04 04:49:12;;;;;;;3.83;1.00;;;;;;;11.61;92.89;101145.75;5021894;28;20212;-78
2022/10/04 04:51:40;;;;;;;5.07;2.07;;;;;;;11.59;93.13;101133.59;5022580;28;20228;-78
2022/10/04 04:54:07;;;;;;;11.10;2.20;;;;;;;11.62;92.73;101141.41;5023422;28;20216;-78
2022/10/04 04:56:35;;;;;;;5.63;0.97;;;;;;;11.61;92.83;101139.69;5021741;28;20223;-78
2022/10/04 04:59:06;;;;;;;5.10;1.70;;;;;;;11.58;92.56;101139.72;5021980;28;20210;-78
2022/10/04 05:01:36;;;;;;;4.70;1.20;;;;;;;11.55;92.68;101140.59;5022701;28;20213;-78
2022/10/04 05:04:05;;;;;;;2.63;1.60;;;;;;;11.53;93.32;101131.91;5021405;28;20223;-79
2022/10/04 05:06:34;;;;;;;5.10;1.47;;;;;;;11.55;93.41;101129.28;5020818;28;20247;-79
2022/10/04 05:09:01;;;;;;;5.27;1.33;;;;;;;11.49;93.51;101133.69;5014220;28;20206;-76
2022/10/04 05:11:30;;;;;;;6.73;1.50;;;;;;;11.49;93.40;101140.69;5004891;28;20199;-76
2022/10/04 05:14:01;;;;;;;3.13;1.60;;;;;;;11.48;93.26;101129.38;5053653;22;20445;-79
2022/10/04 05:16:37;;;;;;;2.60;1.73;;;;;;;11.53;93.43;101132.81;5034510;28;20290;-79
2022/10/04 05:19:08;;;;;;;6.47;1.50;;;;;;;11.48;93.42;101133.75;5036516;28;20210;-81
2022/10/04 05:21:35;;;;;;;3.47;1.30;;;;;;;11.46;93.59;101136.38;5036705;28;20214;-81
2022/10/04 05:24:10;;;;;;;4.33;1.30;;;;;;;11.48;93.77;101136.34;5037221;28;20223;-80
2022/10/04 05:26:37;;;;;;;10.63;1.40;;;;;;;11.47;93.88;101130.22;5036855;28;20206;-81
2022/10/04 05:29:09;;;;;;;10.43;1.67;;;;;;;11.47;93.68;101130.22;5037116;28;20215;-81
2022/10/04 05:31:45;;;;;;;4.73;1.53;;;;;;;11.39;94.69;101123.38;5036507;28;20211;-80
2022/10/04 05:34:23;;;;;;;6.70;1.67;;;;;;;11.30;94.98;101106.91;5036550;28;20258;-80
2022/10/04 05:37:34;;;;;;;2.80;1.20;;;;;;;11.35;94.76;101099.00;5036604;28;20653;-79
2022/10/04 05:40:15;;;;;;;9.33;1.50;;;;;;;11.38;94.97;101098.09;5026229;28;20209;-79
2022/10/04 05:42:44;;;;;;;2.90;1.30;;;;;;;11.43;94.62;101097.16;5036289;28;20250;-80
2022/10/04 05:45:18;;;;;;;30.10;2.50;;;;;;;11.46;94.92;101101.53;5036261;28;20273;-79
2022/10/04 05:47:46;;;;;;;5.73;1.40;;;;;;;11.47;94.49;101106.69;5035289;28;20205;-80
2022/10/04 05:50:19;;;;;;;2.97;1.30;;;;;;;11.47;94.87;101106.69;5035292;28;20208;-81
2022/10/04 05:52:48;;;;;;;5.07;1.53;;;;;;;11.45;95.08;101105.84;5035886;28;20236;-80
2022/10/04 05:55:26;;;;;;;3.30;1.10;;;;;;;11.45;94.74;101100.63;5035465;28;20229;-79
2022/10/04 05:58:18;;;;;;;3.07;1.60;;;;;;;11.48;94.88;101103.22;5036220;28;20208;-79
2022/10/04 06:01:01;;;;;;;3.90;1.60;;;;;;;11.47;95.11;101101.47;5021693;28;20207;-81
2022/10/04 06:03:39;;;;;;;6.03;1.33;;;;;;;11.47;94.78;101104.09;5034932;28;20205;-79
2022/10/04 06:06:19;;;;;;;2.67;1.10;;;;;;;11.51;94.55;101102.31;5034067;28;20217;-81
2022/10/04 06:09:06;;;;;;;2.87;1.07;;;;;;;11.55;94.44;101096.16;5034191;28;20673;-80
2022/10/04 06:11:44;;;;;;;3.73;1.40;;;;;;;11.56;94.72;101095.28;5034539;28;20214;-80
2022/10/04 06:14:35;;;;;;;2.50;1.37;;;;;;;11.61;94.41;101097.84;5034738;28;20237;-80
2022/10/04 06:17:22;;;;;;;2.60;1.20;;;;;;;11.59;94.63;101107.44;5034615;28;20217;-80
2022/10/04 06:20:17;;;;;;;5.50;1.40;;;;;;;11.59;94.88;101110.06;5035301;28;20261;-81
2022/10/04 06:22:47;;;;;;;2.87;1.20;;;;;;;11.62;94.37;101115.28;5042585;28;20210;-82
2022/10/04 06:25:27;;;;;;;5.17;1.30;;;;;;;11.65;94.95;101115.22;5043305;28;20215;-82
2022/10/04 06:28:01;;;;;;;4.80;1.10;;;;;;;11.67;94.75;101124.78;5045222;28;20215;-81
2022/10/04 06:30:40;;;;;;;4.27;1.57;;;;;;;11.66;95.17;101123.03;5045455;28;20202;-82
2022/10/04 06:33:28;;;;;;;4.90;1.70;;;;;;;11.71;94.78;101125.59;5039833;28;20236;-81
2022/10/04 06:36:26;;;;;;;3.13;1.40;;;;;;;11.72;94.97;101122.97;5045850;28;20284;-79
2022/10/04 06:39:17;;;;;;;3.80;1.30;;;;;;;11.78;95.05;101131.63;5046225;28;20668;-81
2022/10/04 06:42:11;;;;;;;5.60;1.90;;;;;;;11.83;94.88;101133.31;5042955;28;20204;-80
2022/10/04 06:44:51;;;;;;;5.50;1.90;;;;;;;11.84;94.47;101145.50;5046704;28;20219;-81
2022/10/04 06:47:34;;;;;;;3.67;1.77;;;;;;;11.86;94.58;101151.56;5046756;28;20249;-80
2022/10/04 06:50:12;;;;;;;3.50;1.73;;;;;;;11.88;94.82;101141.94;5042928;28;20208;-81
2022/10/04 06:52:54;;;;;;;4.33;2.00;;;;;;;11.94;94.62;101135.81;5041483;28;20231;-81
2022/10/04 06:55:54;;;;;;;6.37;2.97;;;;;;;12.03;94.10;101164.47;5043110;28;20237;-82
2022/10/04 06:58:57;;;;;;;6.43;3.53;;;;;;;12.06;93.99;101172.28;5030133;28;20205;-81
2022/10/04 07:01:28;;;;;;;6.33;3.60;;;;;;;12.04;93.83;101184.50;5043458;28;20204;-82
2022/10/04 07:04:01;;;;;;;7.03;3.60;;;;;;;12.06;94.26;101177.50;5044312;28;20230;-81
2022/10/04 07:06:31;;;;;;;13.37;3.50;;;;;;;12.07;94.25;101173.13;5042112;28;20200;-81
2022/10/04 07:09:04;;;;;;;4.10;2.30;;;;;;;12.03;93.30;101180.19;5035969;28;20196;-81
2022/10/04 07:11:41;;;;;;;6.93;2.63;;;;;;;12.00;93.07;101193.28;5036145;28;20215;-81
2022/10/04 07:14:13;;;;;;;6.90;3.10;;;;;;;12.07;93.50;101179.25;5035435;28;20289;-81
2022/10/04 07:16:46;;;;;;;5.57;3.23;;;;;;;12.12;93.67;101168.72;5035858;28;20211;-80
2022/10/04 07:19:35;;;;;;;8.70;2.47;;;;;;;12.16;93.84;101164.31;5035573;28;20212;-81
2022/10/04 07:22:14;;;;;;;3.87;2.63;;;;;;;12.16;92.89;101172.16;5036423;28;20200;-81
2022/10/04 07:24:51;;;;;;;3.50;2.60;;;;;;;12.18;92.90;101178.22;5035981;28;20248;-82
2022/10/04 07:27:24;;;;;;;3.90;2.60;;;;;;;12.15;93.16;101189.63;5040427;28;20201;-81
2022/10/04 07:29:54;;;;;;;6.37;2.70;;;;;;;12.21;93.08;101168.59;5047375;28;20204;-81
2022/10/04 07:32:22;;;;;;;3.30;2.37;;;;;;;12.26;93.54;101155.44;5052238;28;20194;-83
2022/10/04 07:34:54;;;;;;;7.47;2.20;;;;;;;12.34;94.03;101144.84;5056764;28;20720;-79
2022/10/04 07:37:22;;;;;;;4.57;3.13;;;;;;;12.31;94.74;101119.59;5047236;28;20203;-82
2022/10/04 07:39:56;;;;;;;5.27;2.13;;;;;;;12.40;95.09;101110.72;5036562;28;20208;-83
2022/10/04 07:42:29;;;;;;;3.80;2.30;;;;;;;12.39;95.19;101106.34;5037471;28;20203;-80
2022/10/04 07:45:04;;;;;;;4.23;2.23;;;;;;;12.50;93.47;101131.47;5037276;28;20266;-83
2022/10/04 07:47:32;;;;;;;6.13;2.60;;;;;;;12.49;89.05;101249.38;5037976;28;20582;-79
2022/10/04 07:49:58;;;;;;;4.70;2.00;;;;;;;12.62;88.50;101281.47;5038927;28;20217;-81
2022/10/04 07:52:51;;;;;;;5.50;1.70;;;;;;;12.77;87.58;101331.03;5038428;28;20209;-81
2022/10/04 07:55:23;;;;;;;5.23;1.90;;;;;;;12.86;85.74;101382.44;5027695;28;20239;-80
2022/10/04 07:58:06;;;;;;;3.87;2.27;;;;;;;12.91;83.73;101454.03;5038007;28;20203;-81
2022/10/04 08:00:43;;;;;;;2.73;1.90;;;;;;;12.97;83.30;101500.25;5038215;28;20266;-80
2022/10/04 08:03:23;;;;;;;6.37;2.27;;;;;;;12.90;82.69;101536.13;5038333;28;20205;-81
2022/10/04 08:05:58;;;;;;;5.90;2.20;;;;;;;12.90;83.50;101521.28;5038308;28;20314;-80
2022/10/04 08:08:42;;;;;;;4.60;2.00;;;;;;;13.00;83.65;101497.59;5038360;28;20207;-81
2022/10/04 08:11:20;;;;;;;6.07;1.90;;;;;;;13.05;83.54;101495.78;5038982;28;20219;-81
2022/10/04 08:13:56;;;;;;;3.20;2.20;;;;;;;13.03;84.54;101468.72;5038787;28;20233;-81
2022/10/04 08:16:35;;;;;;;2.83;2.10;;;;;;;13.02;83.88;101469.59;5038501;28;20207;-80
2022/10/04 08:19:21;;;;;;;4.33;1.97;;;;;;;13.08;84.18;101461.66;5039274;28;20214;-81
2022/10/04 08:21:57;;;;;;;4.00;2.70;;;;;;;13.07;84.18;101447.69;5039729;28;20212;-81
2022/10/04 08:24:31;;;;;;;3.13;2.27;;;;;;;13.00;83.39;101458.28;5039023;28;20724;-80
2022/10/04 08:27:15;;;;;;;3.83;2.53;;;;;;;12.86;83.72;101442.72;5039327;28;20260;-81
2022/10/04 08:29:59;;;;;;;4.57;3.27;;;;;;;12.83;85.33;101401.72;5039334;28;20235;-79
2022/10/04 08:32:40;;;;;;;5.10;2.40;;;;;;;12.90;85.09;101384.13;5057655;28;20229;-82
2022/10/04 08:35:32;;;;;;;2.77;2.20;;;;;;;12.89;84.54;101401.63;5056963;28;20230;-81
2022/10/04 08:38:13;;;;;;;5.27;2.50;;;;;;;12.92;84.81;101382.38;5042392;28;20211;-82
2022/10/04 08:41:05;;;;;;;5.97;2.50;;;;;;;12.98;86.39;101361.31;4339177;28;10000720;-80
2022/10/04 08:44:04;;;;;;;4.80;2.83;;;;;;;12.88;86.84;101320.41;5034195;28;20213;-80
2022/10/04 08:47:04;;;;;;;4.33;2.50;;;;;;;12.87;84.60;101386.81;5033036;28;20203;-82
2022/10/04 08:49:56;;;;;;;5.77;2.67;;;;;;;12.98;83.21;101428.59;5034637;28;20228;-81
2022/10/04 08:52:48;;;;;;;7.27;2.53;;;;;;;13.07;83.38;101413.63;5034171;28;20216;-81
2022/10/04 08:55:48;;;;;;;4.80;2.53;;;;;;;13.13;83.58;101438.03;5022567;28;20255;-80
2022/10/04 08:58:22;;;;;;;4.60;2.00;;;;;;;13.31;84.78;101401.09;5034210;28;20212;-80
2022/10/04 09:01:00;;;;;;;2.47;1.90;;;;;;;13.38;81.49;101446.44;5033668;28;20244;-81
2022/10/04 09:04:13;;;;;;;4.10;1.90;;;;;;;13.46;80.21;101511.03;5033323;28;20717;-82
2022/10/04 09:06:45;;;;;;;7.03;2.70;;;;;;;13.58;80.17;101545.84;5033457;28;20227;-80
2022/10/04 09:09:44;;;;;;;3.37;2.00;;;;;;;13.61;79.28;101564.16;5033454;28;20265;-81
2022/10/04 09:12:31;;;;;;;3.53;2.10;;;;;;;13.63;79.62;101570.25;5033924;28;20232;-82
2022/10/04 09:15:24;;;;;;;4.63;2.23;;;;;;;13.68;79.83;101550.94;5032666;28;20761;-81
2022/10/04 09:18:01;;;;;;;4.27;2.10;;;;;;;13.65;79.22;101548.34;5032883;28;20215;-82
2022/10/04 09:20:42;;;;;;;4.30;2.23;;;;;;;13.72;79.41;101567.50;5033275;28;20741;-81
2022/10/04 09:23:24;;;;;;;4.23;2.50;;;;;;;13.73;79.73;101553.47;5033534;28;20203;-81
2022/10/04 09:26:06;;;;;;;5.00;2.93;;;;;;;13.79;80.34;101528.91;5033013;28;20236;-82
2022/10/04 09:28:50;;;;;;;3.37;2.10;;;;;;;13.82;78.74;101542.00;5033569;28;20273;-82
2022/10/04 09:31:39;;;;;;;3.47;2.27;;;;;;;13.85;79.32;101557.69;5033621;28;20219;-82
2022/10/04 09:34:25;;;;;;;6.13;2.63;;;;;;;13.93;79.06;101555.81;5034101;28;20239;-81
2022/10/04 09:37:20;;;;;;;4.57;2.63;;;;;;;13.98;79.21;101542.66;5030535;28;20237;-81
2022/10/04 09:40:02;;;;;;;3.47;2.57;;;;;;;13.93;78.31;101581.22;5032590;28;20220;-81
2022/10/04 09:42:51;;;;;;;4.80;2.50;;;;;;;13.95;77.93;101587.31;5032636;28;20299;-81
2022/10/04 09:45:50;;;;;;;4.73;2.20;;;;;;;13.92;78.32;101585.59;5032927;28;20235;-79
2022/10/04 09:48:30;;;;;;;5.50;2.20;;;;;;;13.86;78.08;101590.94;5031811;28;20218;-81
2022/10/04 09:51:17;;;;;;;4.17;1.83;;;;;;;13.96;78.27;101568.06;5032239;28;20280;-79
2022/10/04 09:54:03;;;;;;;2.43;2.00;;;;;;;14.02;77.95;101560.94;5032525;28;20226;-80
2022/10/04 09:56:53;;;;;;;4.27;2.67;;;;;;;14.06;77.40;101585.41;5032235;28;20256;-81
2022/10/04 09:59:38;;;;;;;5.77;2.17;;;;;;;14.08;77.65;101581.84;5032649;28;20212;-82
2022/10/04 10:02:37;;;;;;;5.10;1.97;;;;;;;14.10;76.97;101585.31;5031301;28;20218;-81
2022/10/04 10:05:28;;;;;;;5.40;2.00;;;;;;;14.16;77.02;101570.38;5030917;28;20222;-79
2022/10/04 10:08:05;;;;;;;2.33;1.70;;;;;;;14.23;77.22;101569.38;5032075;28;20199;-80
2022/10/04 10:13:41;;;;;;;3.93;1.70;;;;;;;14.38;75.94;101590.13;5031910;28;20230;-82
2022/10/04 10:16:41;;;;;;;3.80;1.93;;;;;;;14.60;77.40;101577.53;5032159;28;20253;-80
2022/10/04 10:19:34;;;;;;;2.97;1.87;;;;;;;14.76;74.48;101593.03;5013727;28;20219;-82
2022/10/04 10:22:21;;;;;;;3.60;1.87;;;;;;;14.88;72.62;101701.50;5032182;28;20752;-81
2022/10/04 10:25:08;;;;;;;3.43;1.90;;;;;;;15.03;72.69;101699.50;5031596;28;20227;-80
2022/10/04 10:27:55;;;;;;;3.03;1.60;;;;;;;15.19;72.96;101708.84;5032278;28;20207;-83
2022/10/04 10:30:25;;;;;;;3.00;1.90;;;;;;;15.20;72.99;101722.84;5031177;28;20218;-80
2022/10/04 10:33:22;;;;;;;4.70;1.97;;;;;;;15.13;71.14;101740.50;5031429;28;20723;-81
2022/10/04 10:36:05;;;;;;;3.77;1.87;;;;;;;15.02;70.77;101760.84;5031712;28;20228;-83
2022/10/04 10:38:47;;;;;;;2.43;1.80;;;;;;;15.08;72.55;101727.47;5031439;28;20214;-83
2022/10/04 10:41:35;;;;;;;5.17;2.53;;;;;;;15.03;73.68;101681.94;5031568;28;20228;-82
2022/10/04 10:44:25;;;;;;;3.63;1.80;;;;;;;14.96;70.99;101687.34;5032165;28;20289;-81
2022/10/04 10:47:12;;;;;;;4.00;2.13;;;;;;;14.89;70.35;101753.16;5019903;28;20211;-82
2022/10/04 10:49:48;;;;;;;3.63;1.97;;;;;;;14.92;70.90;101754.00;5032478;28;20220;-82
2022/10/04 10:52:38;;;;;;;3.47;2.47;;;;;;;14.96;71.79;101747.81;5032928;28;20211;-83
2022/10/04 10:55:28;;;;;;;3.73;1.90;;;;;;;14.92;70.03;101760.13;5032462;28;20236;-80
2022/10/04 10:58:39;;;;;;;3.83;1.80;;;;;;;14.97;69.28;101787.22;5031139;28;20227;-82
2022/10/04 11:01:34;;;;;;;4.37;2.13;;;;;;;15.03;69.27;101768.72;4949560;29;20206;-80
2022/10/04 11:04:20;;;;;;;2.80;1.77;;;;;;;15.03;68.77;101792.41;5033526;28;20229;-81
2022/10/04 11:07:09;;;;;;;5.83;1.90;;;;;;;15.10;69.60;101772.13;5035327;28;20546;-82
2022/10/04 11:10:05;;;;;;;3.90;2.00;;;;;;;15.10;69.71;101737.91;5035131;28;20211;-80
2022/10/04 11:12:50;;;;;;;2.80;1.87;;;;;;;15.17;69.35;101704.50;5035202;28;20220;-82
2022/10/04 11:15:50;;;;;;;2.93;2.07;;;;;;;15.22;68.88;101757.88;5034189;28;20886;-80
2022/10/04 11:18:53;;;;;;;4.10;1.87;;;;;;;15.25;68.69;101753.44;5035464;28;20204;-80
2022/10/04 11:21:54;;;;;;;2.87;1.90;;;;;;;15.45;70.64;101715.41;5009648;28;20298;-81
2022/10/04 11:24:43;;;;;;;3.33;2.47;;;;;;;15.52;68.86;101721.41;4995181;28;20233;-82
2022/10/04 11:27:18;;;;;;;1.90;1.60;;;;;;;15.63;68.91;101732.59;5035163;28;20214;-82
2022/10/04 11:30:02;;;;;;;2.63;1.70;;;;;;;15.60;67.00;101767.75;5034902;28;20208;-80
2022/10/04 11:33:04;;;;;;;3.80;2.40;;;;;;;16.12;67.44;101758.00;5034492;28;20216;-83
2022/10/04 11:35:52;;;;;;;2.87;1.70;;;;;;;16.52;65.07;101803.72;5034330;28;20591;-83
2022/10/04 11:38:34;;;;;;;3.13;1.93;;;;;;;16.83;65.58;101830.31;5034566;28;20208;-80
2022/10/04 11:41:12;;;;;;;2.60;1.93;;;;;;;17.77;64.56;101836.75;5028198;28;20209;-82
2022/10/04 11:44:00;;;;;;;1.80;1.67;;;;;;;19.28;59.48;101940.91;5034656;28;20220;-79
2022/10/04 11:46:37;;;;;;;3.47;1.60;;;;;;;20.36;54.74;102120.34;5034153;28;20218;-82
2022/10/04 11:49:21;;;;;;;4.07;1.90;;;;;;;20.81;53.28;102249.78;5035257;28;20206;-83
2022/10/04 11:52:07;;;;;;;2.30;1.67;;;;;;;21.81;49.25;102318.13;5035938;28;20211;-81
2022/10/04 11:55:16;;;;;;;4.30;1.53;;;;;;;22.46;48.63;102400.88;5035504;28;20245;-82
2022/10/04 11:57:47;;;;;;;4.23;1.90;;;;;;;23.32;47.48;102405.53;5004130;28;20202;-83
2022/10/04 12:00:19;;;;;;;4.73;1.60;;;;;;;23.67;46.17;102441.41;5037248;28;20206;-83
2022/10/04 12:03:36;;;;;;;3.10;1.90;;;;;;;23.67;42.31;102502.72;5036986;28;20704;-82
2022/10/04 12:06:33;;;;;;;3.33;1.70;;;;;;;24.53;42.83;102491.06;5035912;28;20216;-82
2022/10/04 12:09:13;;;;;;;2.27;1.77;;;;;;;24.44;43.08;102469.22;5029160;28;20198;-83
2022/10/04 12:14:58;;;;;;;3.17;2.20;;;;;;;23.21;43.51;102453.97;5015000;28;20248;-79
2022/10/04 12:17:45;;;;;;;2.97;2.37;;;;;;;24.14;44.25;102334.44;5014880;28;20220;-81
2022/10/04 12:20:42;;;;;;;2.67;2.00;;;;;;;24.40;41.17;102319.03;5015416;28;20218;-81
2022/10/04 12:23:35;;;;;;;2.67;2.10;;;;;;;24.34;41.76;102320.16;5014775;28;20244;-79
2022/10/04 12:26:30;;;;;;;3.47;1.90;;;;;;;24.60;43.21;102302.06;5014155;28;20211;-79
2022/10/04 12:29:20;;;;;;;2.60;2.13;;;;;;;24.77;41.59;102271.84;5002137;28;20293;-81